Poseidon — DBKV — position and weather

sailwx.info

Track history (hours):
 
Tides and Currents Weather Stations Pressure Air Temp Water Temp Dewpoint Dewpoint Depression Visibility Wind Speed Wind Dir Waves Ship Positions

Oceanographic research ship Poseidon (Germany)

Detailed information on ship capabilities available from University of Delaware's Ocean Information Center.

Last reported at 2019-Nov-17 17:00 UTC. Time now 2019-Nov-17 17:37 UTC.
Position N 43°36' E 030°36'.

Length 60 m; beam 11.4 m; draft 4.1 m.

Type: Ship. MMSI: 211204360.

Wind from 090 at 17 knots

Barometer 1022.6 mb
Air temperature 14.2 ° C
Water temperature 16.9 ° C

Date/timePositionNaut miles runAvg speedWind from/ knotsBaromVisibWave heightAir tempDewpointWater temp
2019-Nov-17 17:00N 43°36' E 030°36'0 0.0 090 / 171022.6 14.2 16.9
2019-Nov-17 16:00N 43°36' E 030°36'0 0.0 100 / 171022.9 14.4 16.9
2019-Nov-17 15:00N 43°36' E 030°36'0 0.0 090 / 171022.8 13.9 16.9
2019-Nov-17 14:00N 43°36' E 030°36'0 0.0 110 / 171022.8 14.2 16.9
2019-Nov-17 13:00N 43°36' E 030°36'0 0.0 100 / 151022.8 14.4 16.9
2019-Nov-17 12:00N 43°36' E 030°36'0 0.0 090 / 141023.0 14.2 16.9
2019-Nov-17 11:00N 43°36' E 030°36'0 0.0 100 / 161023.2 14.0 16.8
2019-Nov-17 10:00N 43°36' E 030°36'0 0.0 100 / 171023.6 13.9 16.9
2019-Nov-17 09:00N 43°36' E 030°36'0 0.0 100 / 191023.9 14.0 16.9
2019-Nov-17 08:00N 43°36' E 030°36'0 0.0 100 / 191024.3 14.2 16.9
2019-Nov-17 07:00N 43°36' E 030°36'0 0.0 090 / 171024.3 14.5 16.9
2019-Nov-17 06:00N 43°36' E 030°36'0 0.0 090 / 181024.3 15.0 16.8
2019-Nov-17 05:00N 43°36' E 030°36'0 0.0 070 / 201024.0 14.9 16.8
2019-Nov-17 04:00N 43°36' E 030°36'0 0.0 070 / 181023.8 14.7 16.8
2019-Nov-17 03:00N 43°36' E 030°36'0 0.0 070 / 181023.5 14.7 16.8
2019-Nov-17 02:00N 43°36' E 030°36'0 0.0 080 / 171023.5 14.7 16.8
2019-Nov-17 01:00N 43°36' E 030°36'0 0.0 090 / 151023.6 15.0 16.8
2019-Nov-17 00:00N 43°36' E 030°36'0 0.0 100 / 151023.6 15.2 16.8
2019-Nov-16 23:00N 43°36' E 030°36'0 0.0 090 / 151023.6 15.0 16.8
2019-Nov-16 22:00N 43°36' E 030°36'0 0.0 090 / 161023.9 15.2 16.9
2019-Nov-16 21:00N 43°36' E 030°36'0 0.0 090 / 151024.1 15.2 16.9
2019-Nov-16 20:00N 43°36' E 030°36'0 0.0 090 / 111024.3 15.2 16.9
2019-Nov-16 19:00N 43°36' E 030°36'0 0.0 100 / 161024.3 14.9 16.9
2019-Nov-16 18:00N 43°36' E 030°36'0 0.0 090 / 151024.4 15.0 16.8
2019-Nov-16 17:00N 43°36' E 030°36'0 0.0 090 / 141024.5 15.2 16.9
2019-Nov-16 16:00N 43°36' E 030°36'0 0.0 090 / 111024.4 15.2 16.9
2019-Nov-16 15:00N 43°36' E 030°36'0 0.0 090 / 121024.1 15.2 16.9
2019-Nov-16 14:00N 43°36' E 030°36'7 7.4 090 / 101023.8 15.5 16.9
2019-Nov-16 13:00N 43°42' E 030°42'1212.0 110 / 81023.9 15.4 16.7
2019-Nov-16 12:00N 43°54' E 030°42'7 7.4 110 / 51024.4 14.9 16.7
2019-Nov-16 11:00N 44°00' E 030°48'7 7.4 120 / 41024.6 15.4 16.2
2019-Nov-16 10:00N 44°06' E 030°54'7 7.4 110 / 71024.9 15.9 15.9
2019-Nov-16 09:00N 44°12' E 031°00'0 0.0 120 / 71025.3 15.4 16.2
2019-Nov-16 08:00N 44°12' E 031°00'0 0.0 080 / 51025.2 14.9 16.2
2019-Nov-16 07:00N 44°12' E 031°00'0 0.0 110 / 31025.0 14.4 16.2
2019-Nov-16 06:00N 44°12' E 031°00'0 0.0 090 / 71024.7 14.5 16.2
2019-Nov-16 05:00N 44°12' E 031°00'0 0.0 100 / 51024.2 15.4 16.2
2019-Nov-16 04:00N 44°12' E 031°00'4 4.3 320 / 11023.8 15.2 16.2
2019-Nov-16 03:00N 44°12' E 031°06'6 6.0 220 / 31023.5 15.4 16.1
2019-Nov-16 02:00N 44°18' E 031°06'6 6.0 240 / 61023.5 15.4 16.1
2019-Nov-16 01:00N 44°12' E 031°06'0 0.0 220 / 51023.4 15.7 16.1
2019-Nov-16 00:00N 44°12' E 031°06'4 4.3 200 / 71023.2 15.7 16.1
2019-Nov-15 23:00N 44°12' E 031°00'0 0.0 190 / 61022.6 15.9 16.1
2019-Nov-15 22:00N 44°12' E 031°00'0 0.0 190 / 71022.3 15.9 16.1
2019-Nov-15 21:00N 44°12' E 031°00'0 0.0 180 / 81022.1 16.0 16.1
2019-Nov-15 20:00N 44°12' E 031°00'0 0.0 180 / 81022.0 16.2 16.1
2019-Nov-15 19:00N 44°12' E 031°00'0 0.0 180 / 101021.7 16.2 16.1
2019-Nov-15 18:00N 44°12' E 031°00'0 0.0 180 / 91021.5 16.4 16.1
2019-Nov-15 17:00N 44°12' E 031°00'0 0.0 180 / 91021.2 16.2 16.0
2019-Nov-15 16:00N 44°12' E 031°00'0 0.0 180 / 91020.9 16.2 16.0
2019-Nov-15 15:00N 44°12' E 031°00'0 0.0 170 / 81020.3 16.4 16.1
2019-Nov-15 14:00N 44°12' E 031°00'6 6.0 170 / 71020.0 16.7 16.5
2019-Nov-15 13:00N 44°06' E 031°00'7 7.4 150 / 91019.4 16.9 16.3
2019-Nov-15 12:00N 44°00' E 030°54'7 7.4 190 / 71019.1 17.2 16.1
2019-Nov-15 11:00N 43°54' E 030°48'4 4.3 200 / 121018.8 17.0 16.5
2019-Nov-15 10:00N 43°54' E 030°42'7 7.4 180 / 121018.8 16.7 16.7
2019-Nov-15 09:00N 43°48' E 030°36'4 4.3 180 / 111018.7 17.2 16.9
2019-Nov-15 08:00N 43°48' E 030°30'0 0.0 190 / 101018.2 17.2 16.9
2019-Nov-15 07:00N 43°48' E 030°30'0 0.0 180 / 81017.7 16.9 16.9
2019-Nov-15 06:00N 43°48' E 030°30'0 0.0 190 / 81017.3 16.9 16.9
2019-Nov-15 05:00N 43°48' E 030°30'0 0.0 190 / 61016.4 16.7 16.9
2019-Nov-15 04:00N 43°48' E 030°30'0 0.0 190 / 81015.9 16.7 16.9
2019-Nov-15 03:00N 43°48' E 030°30'0 0.0 150 / 81015.3 16.7 16.9
2019-Nov-15 02:00N 43°48' E 030°30'0 0.0 140 / 81015.0 16.7 17.0
2019-Nov-15 01:00N 43°48' E 030°30'0 0.0 110 / 81014.7 16.7 17.0
2019-Nov-15 00:00N 43°48' E 030°30'0 0.0 160 / 51014.7 16.5 17.0
2019-Nov-14 23:00N 43°48' E 030°30'0 0.0 140 / 51014.2 16.5 16.9
2019-Nov-14 22:00N 43°48' E 030°30'0 0.0 130 / 101013.9 16.4 17.0
2019-Nov-14 21:00N 43°48' E 030°30'0 0.0 130 / 111013.6 16.4 17.0
2019-Nov-14 20:00N 43°48' E 030°30'0 0.0 130 / 141013.5 16.4 16.9
2019-Nov-14 19:00N 43°48' E 030°30'0 0.0 120 / 151013.2 16.4 16.9
2019-Nov-14 18:00N 43°48' E 030°30'0 0.0 110 / 161012.6 16.2 17.0
2019-Nov-14 17:00N 43°48' E 030°30'0 0.0 120 / 161012.8 16.2 17.1
2019-Nov-14 16:00N 43°48' E 030°30'0 0.0 120 / 181012.9 16.0 17.1
2019-Nov-14 15:00N 43°48' E 030°30'0 0.0 120 / 201012.3 16.0 17.1
2019-Nov-14 14:00N 43°48' E 030°30'0 0.0 110 / 191012.1 16.0 17.1
2019-Nov-14 13:00N 43°48' E 030°30'0 0.0 110 / 191012.2 15.9 17.1
2019-Nov-14 12:00N 43°48' E 030°30'0 0.0 110 / 241011.9 15.9 17.1
2019-Nov-14 11:00N 43°48' E 030°30'0 0.0 110 / 221012.2 16.0 17.1
2019-Nov-14 10:00N 43°48' E 030°30'6 6.0 110 / 231012.6 16.0 17.1
2019-Nov-14 09:00N 43°42' E 030°30'6 6.0 100 / 231012.6 16.0 17.1
2019-Nov-14 08:00N 43°48' E 030°30'0 0.0 100 / 201013.0 16.0 17.0
2019-Nov-14 07:00N 43°48' E 030°30'7 7.4 110 / 211012.6 16.2 16.9
2019-Nov-14 06:00N 43°42' E 030°36'1212.0 090 / 191012.8 16.0 17.0
2019-Nov-14 05:00N 43°30' E 030°36'4 4.4 090 / 191012.5 16.2 16.9
2019-Nov-14 04:00N 43°30' E 030°42'0 0.0 100 / 201012.2 16.0 17.0
2019-Nov-14 03:00N 43°30' E 030°42'0 0.0 110 / 191012.7 15.9 17.0
2019-Nov-14 02:00N 43°30' E 030°42'0 0.0 120 / 181013.2 15.7 17.0
2019-Nov-14 01:00N 43°30' E 030°42'0 0.0 110 / 221013.0 15.4 17.0
2019-Nov-14 00:00N 43°30' E 030°42'0 0.0 110 / 221013.2 15.4 17.0
2019-Nov-13 23:00N 43°30' E 030°42'0 0.0 100 / 251012.8 15.4 17.0
2019-Nov-13 22:00N 43°30' E 030°42'0 0.0 110 / 251013.5 15.5 17.0
2019-Nov-13 21:00N 43°30' E 030°42'0 0.0 110 / 241014.2 15.7 17.0
2019-Nov-13 20:00N 43°30' E 030°42'0 0.0 110 / 261014.4 16.2 17.0
2019-Nov-13 19:00N 43°30' E 030°42'0 0.0 120 / 231014.8 16.2 17.0
2019-Nov-13 18:00N 43°30' E 030°42'0 0.0 110 / 241014.8 16.4 17.1
2019-Nov-13 17:00N 43°30' E 030°42'2 2.2 110 / 231014.9 16.4 17.1
2019-Nov-13 16:00N 43°30' E 030°39'2141.3
2019-Nov-13 16:00N 43°30' E 030°42'0 0.0 110 / 241014.9 16.4 17.1
2019-Nov-13 15:00N 43°30' E 030°42'0 0.0 120 / 201014.9 16.7 17.1
2019-Nov-13 14:00N 43°30' E 030°42'0 0.0 120 / 181014.9 16.7 17.1
2019-Nov-13 13:00N 43°30' E 030°42'0 0.0 120 / 181015.0 16.9 17.2
2019-Nov-13 12:00N 43°30' E 030°42'0 0.0 130 / 171015.5 17.2 17.2
2019-Nov-13 11:00N 43°30' E 030°42'0 0.0 130 / 181015.5 17.2 17.2
2019-Nov-13 10:00N 43°30' E 030°42'0 0.0 130 / 211015.4 17.0 17.2
2019-Nov-13 09:00N 43°30' E 030°42'2 2.6 130 / 221015.9 17.2 17.2
2019-Nov-13 08:08N 43°30' E 030°39'215.3
2019-Nov-13 08:00N 43°30' E 030°42'0 0.0 120 / 231016.1 17.0 17.2
2019-Nov-13 07:00N 43°30' E 030°42'0 0.0 120 / 231016.2 16.9 17.2
2019-Nov-13 06:00N 43°30' E 030°42'0 0.0 120 / 231016.3 16.7 17.1
2019-Nov-13 05:00N 43°30' E 030°42'0 0.0 120 / 231016.2 16.5 17.1
2019-Nov-13 04:00N 43°30' E 030°42'0 0.0 120 / 241016.0 16.4 17.1
2019-Nov-13 03:00N 43°30' E 030°42'0 0.0 110 / 241016.3 16.2 17.1
2019-Nov-13 02:00N 43°30' E 030°42'0 0.0 110 / 241016.6 16.2 17.1
2019-Nov-13 01:00N 43°30' E 030°42'0 0.0 110 / 271017.2 16.0 17.1
2019-Nov-13 00:00N 43°30' E 030°42'0 0.0 110 / 251017.4 16.2 17.0
2019-Nov-12 23:00N 43°30' E 030°42'0 0.0 100 / 251017.8 16.2 17.0
2019-Nov-12 22:00N 43°30' E 030°42'0 0.0 100 / 231018.2 16.4 17.0
2019-Nov-12 21:00N 43°30' E 030°42'0 0.0 110 / 221018.4 16.2 17.0
2019-Nov-12 20:00N 43°30' E 030°42'0 0.0 110 / 191018.8 16.2 17.0
2019-Nov-12 19:00N 43°30' E 030°42'7 7.4 100 / 171019.1 16.2 17.0
2019-Nov-12 18:00N 43°24' E 030°48'4 4.4 100 / 161019.1 16.0 16.5
2019-Nov-12 17:00N 43°24' E 030°54'6 6.0 100 / 181018.8 16.2 16.4
2019-Nov-12 16:00N 43°18' E 030°54'0 0.0 100 / 181018.7 16.0 16.4
2019-Nov-12 15:00N 43°18' E 030°54'0 0.0 110 / 151019.0 16.2 16.4
2019-Nov-12 14:00N 43°18' E 030°54'0 0.0 100 / 211018.6 15.9 16.4
2019-Nov-12 13:00N 43°18' E 030°54'215.4 090 / 201019.0 16.0 16.4
2019-Nov-12 12:51N 43°20' E 030°55'0 0.0
2019-Nov-12 12:00N 43°20' E 030°55'2332.4
2019-Nov-12 12:00N 43°18' E 030°54'2 3.7 090 / 191019.6 16.0 16.4
2019-Nov-12 11:25N 43°20' E 030°55'2 4.9
2019-Nov-12 11:00N 43°18' E 030°54'0 0.0 080 / 211019.5 16.2 16.5
2019-Nov-12 10:00N 43°18' E 030°54'0 0.0 080 / 201020.2 16.0 16.5
2019-Nov-12 09:00N 43°18' E 030°54'0 0.0 090 / 191020.6 16.4 16.4
2019-Nov-12 08:00N 43°18' E 030°54'0 0.0 090 / 171021.1 16.2 16.5
2019-Nov-12 07:00N 43°18' E 030°54'0 0.0 090 / 181021.1 15.9 16.5
2019-Nov-12 06:00N 43°18' E 030°54'0 0.0 080 / 181021.2 15.2 16.5
2019-Nov-12 05:00N 43°18' E 030°54'0 0.0 070 / 161020.7 16.4 16.5
2019-Nov-12 04:00N 43°18' E 030°54'0 0.0 060 / 141020.5 16.4 16.5
2019-Nov-12 03:00N 43°18' E 030°54'0 0.0 050 / 111020.4 16.2 16.6
2019-Nov-12 02:00N 43°18' E 030°54'0 0.0 050 / 111020.3 16.4 16.6
2019-Nov-12 01:00N 43°18' E 030°54'0 0.0 070 / 121020.2 16.4 16.6
2019-Nov-12 00:00N 43°18' E 030°54'0 0.0 090 / 111020.1 16.4 16.5
2019-Nov-11 23:00N 43°18' E 030°54'0 0.0 060 / 91020.3 16.4 16.6
2019-Nov-11 22:00N 43°18' E 030°54'0 0.0 100 / 71020.3 16.4 16.6
2019-Nov-11 21:00N 43°18' E 030°54'0 0.0 100 / 151020.1 16.7 16.6
2019-Nov-11 20:00N 43°18' E 030°54'0 0.0 030 / 91019.9 16.2 16.6
2019-Nov-11 19:00N 43°18' E 030°54'0 0.0 150 / 61021.2 16.2 16.6
2019-Nov-11 18:00N 43°18' E 030°54'0 0.0 110 / 71020.8 16.2 16.6
2019-Nov-11 17:00N 43°18' E 030°54'0 0.0 080 / 71020.4 16.2 16.6
2019-Nov-11 16:00N 43°18' E 030°54'0 0.0 060 / 71019.9 16.2 16.7
2019-Nov-11 15:00N 43°18' E 030°54'7 7.4 030 / 61019.8 16.4 16.7
2019-Nov-11 14:00N 43°24' E 031°00'1312.8 340 / 71019.3 16.5 16.6
2019-Nov-11 13:00N 43°36' E 031°06'7 7.4 320 / 131019.3 16.7 16.5
2019-Nov-11 12:00N 43°42' E 031°12'0 0.0 310 / 111019.0 17.0 16.3
2019-Nov-11 11:00N 43°42' E 031°12'0 0.0 310 / 111019.1 17.2 16.3
2019-Nov-11 10:00N 43°42' E 031°12'0 0.0 280 / 101019.1 17.2 16.3
2019-Nov-11 09:00N 43°42' E 031°12'0 0.0 260 / 101019.4 17.2 16.2
2019-Nov-11 08:00N 43°42' E 031°12'0 0.0 240 / 101019.3 17.4 16.2
2019-Nov-11 07:00N 43°42' E 031°12'0 0.0 230 / 101018.9 17.4 16.2
2019-Nov-11 06:00N 43°42' E 031°12'0 0.0 230 / 111018.5 17.7 16.2
2019-Nov-11 05:00N 43°42' E 031°12'0 0.0 210 / 141017.9 17.5 16.1
2019-Nov-11 04:00N 43°42' E 031°12'0 0.0 200 / 131017.7 17.4 16.2
2019-Nov-11 03:00N 43°42' E 031°12'0 0.0 210 / 161017.6 18.0 16.2
2019-Nov-11 02:00N 43°42' E 031°12'0 0.0 200 / 131017.4 16.7 16.2
2019-Nov-11 01:00N 43°42' E 031°12'0 0.0 190 / 101017.2 16.4 16.2
2019-Nov-11 00:00N 43°42' E 031°12'0 0.0 180 / 111016.9 15.9 16.2
2019-Nov-10 23:00N 43°42' E 031°12'0 0.0 180 / 101016.9 15.2 16.2
2019-Nov-10 22:00N 43°42' E 031°12'0 0.0 170 / 91016.8 14.7 16.2
2019-Nov-10 21:00N 43°42' E 031°12'0 0.0 180 / 91016.7 15.5 16.2
2019-Nov-10 20:00N 43°42' E 031°12'0 0.0 160 / 111016.7 15.7 16.2
2019-Nov-10 19:00N 43°42' E 031°12'0 0.0 140 / 101016.4 16.2 16.3
2019-Nov-10 18:00N 43°42' E 031°12'0 0.0 160 / 91016.3 16.2 16.2
2019-Nov-10 17:00N 43°42' E 031°12'0 0.0 140 / 131015.8 16.2 16.3
2019-Nov-10 16:00N 43°42' E 031°12'0 0.0 140 / 141015.8 16.4 16.3
2019-Nov-10 15:00N 43°42' E 031°12'0 0.0 150 / 141015.7 16.4 16.3
2019-Nov-10 14:00N 43°42' E 031°12'0 0.0 150 / 141015.5 16.5 16.3
2019-Nov-10 13:00N 43°42' E 031°12'0 0.0 140 / 151015.1 16.7 16.3
2019-Nov-10 12:00N 43°42' E 031°12'0 0.0 140 / 141015.3 16.7 16.3
2019-Nov-10 11:00N 43°42' E 031°12'0 0.0 140 / 141015.7 16.7 16.3
2019-Nov-10 10:00N 43°42' E 031°12'0 0.0 140 / 161016.1 16.7 16.3
2019-Nov-10 09:00N 43°42' E 031°12'0 0.0 140 / 171016.6 16.4 16.3
2019-Nov-10 08:00N 43°42' E 031°12'0 0.0 130 / 181016.7 16.4 16.3
2019-Nov-10 07:00N 43°42' E 031°12'0 0.0 140 / 161017.0 16.4 16.2
2019-Nov-10 06:00N 43°42' E 031°12'0 0.0 120 / 191016.7 16.0 16.2
2019-Nov-10 05:00N 43°42' E 031°12'0 0.0 120 / 181016.8 15.2 16.1
2019-Nov-10 04:00N 43°42' E 031°12'6 6.0 120 / 211016.7 14.9 16.1
2019-Nov-10 03:00N 43°36' E 031°12'4 4.3 120 / 211016.7 15.4 16.3
2019-Nov-10 02:00N 43°36' E 031°06'0 0.0 120 / 211016.7 14.7 16.1
2019-Nov-10 01:00N 43°36' E 031°06'0 0.0 120 / 171016.9 14.7 16.1
2019-Nov-10 00:00N 43°36' E 031°06'7 7.4 130 / 151017.4 14.4 16.2
2019-Nov-09 23:00N 43°30' E 031°00'0 0.0 130 / 151017.6 14.2 16.5
2019-Nov-09 22:00N 43°30' E 031°00'7 7.4 150 / 141017.9 14.5 16.6
2019-Nov-09 21:00N 43°24' E 030°54'0 0.0 140 / 151018.3 14.4 17.0
2019-Nov-09 20:00N 43°24' E 030°54'0 0.0 140 / 171018.7 14.7 16.9
2019-Nov-09 19:00N 43°24' E 030°54'7 7.4 130 / 181018.5 15.2 16.9
2019-Nov-09 18:00N 43°18' E 030°48'0 0.0 130 / 141018.2 16.4 17.1
2019-Nov-09 17:00N 43°18' E 030°48'6 6.0 140 / 111018.1 17.5 17.1
2019-Nov-09 16:00N 43°12' E 030°48'4 4.4 140 / 111018.3 17.5 17.2
2019-Nov-09 15:00N 43°12' E 030°42'0 0.0 140 / 91018.0 17.9 17.4
2019-Nov-09 14:00N 43°12' E 030°42'4 4.4 150 / 101018.0 18.2 17.3
2019-Nov-09 13:00N 43°12' E 030°36'6 6.0 150 / 101018.1 18.4 17.4
2019-Nov-09 12:00N 43°06' E 030°36'0 0.0 170 / 91018.1 18.9 17.4
2019-Nov-09 11:00N 43°06' E 030°36'0 0.0 160 / 81018.1 18.4 17.1
2019-Nov-09 10:00N 43°06' E 030°36'0 0.0 190 / 71018.3 18.7 17.2
2019-Nov-09 09:00N 43°06' E 030°36'0 0.0 210 / 91018.6 19.2 17.1
2019-Nov-09 08:00N 43°06' E 030°36'0 0.0 210 / 121018.6 18.9 17.0
2019-Nov-09 07:00N 43°06' E 030°36'0 0.0 200 / 121018.4 18.7 16.9
2019-Nov-09 06:00N 43°06' E 030°36'0 0.0 190 / 101018.2 18.9 16.8
2019-Nov-09 05:00N 43°06' E 030°36'0 0.0 180 / 111017.7 17.9 16.8
2019-Nov-09 04:00N 43°06' E 030°36'0 0.0 180 / 91017.2 17.7 16.9
2019-Nov-09 03:00N 43°06' E 030°36'0 0.0 180 / 71016.9 17.7 16.8
2019-Nov-09 02:00N 43°06' E 030°36'236.6 190 / 71016.6 17.7 16.8
2019-Nov-09 01:56N 43°08' E 030°35'2 2.3
2019-Nov-09 01:00N 43°06' E 030°36'2 4.3 190 / 91016.5 17.4 17.0
2019-Nov-09 00:30N 43°08' E 030°35'2 4.1
2019-Nov-09 00:00N 43°06' E 030°36'0 0.0 180 / 91016.5 17.4 17.1
2019-Nov-08 23:00N 43°06' E 030°36'0 0.0 180 / 121016.5 17.4 17.1
2019-Nov-08 22:00N 43°06' E 030°36'0 0.0 160 / 111016.5 17.7 17.1
2019-Nov-08 21:00N 43°06' E 030°36'0 0.0 140 / 101016.3 17.9 17.2
2019-Nov-08 20:00N 43°06' E 030°36'0 0.0 140 / 71016.2 17.7 17.2
2019-Nov-08 19:00N 43°06' E 030°36'0 0.0 140 / 121016.1 18.0 17.2
2019-Nov-08 18:00N 43°06' E 030°36'0 0.0 140 / 151016.0 18.0 17.2
2019-Nov-08 17:00N 43°06' E 030°36'0 0.0 150 / 121015.9 18.7 17.3
2019-Nov-08 16:00N 43°06' E 030°36'0 0.0 150 / 121015.5 17.9 17.3
2019-Nov-08 15:00N 43°06' E 030°36'0 0.0 150 / 101015.4 18.2 17.3
2019-Nov-08 14:00N 43°06' E 030°36'0 0.0 150 / 111015.0 18.0 17.3
2019-Nov-08 13:00N 43°06' E 030°36'4 4.4 170 / 101015.0 18.9 17.3
2019-Nov-08 12:00N 43°06' E 030°30'1110.6 190 / 91014.8 19.4 17.2
2019-Nov-08 11:00N 43°00' E 030°18'18 8.9 180 / 121014.6 19.4 17.7
2019-Nov-08 09:00N 42°48' E 030°00'1110.7 180 / 121014.8 19.2 17.3
2019-Nov-08 08:00N 42°42' E 029°48'4 4.4 180 / 111014.8 18.9 17.1
2019-Nov-08 07:00N 42°42' E 029°42'1110.7 170 / 131014.6 18.2 17.4
2019-Nov-08 06:00N 42°36' E 029°30'1110.7 170 / 121014.3 18.4 16.9
2019-Nov-08 05:00N 42°30' E 029°18'0 0.0 180 / 131013.6 18.2 17.2
2019-Nov-08 04:00N 42°30' E 029°18'0 0.0 180 / 121013.0 18.4 17.2
2019-Nov-08 03:00N 42°30' E 029°18'0 0.0 170 / 111013.0 18.2 17.2
2019-Nov-08 02:00N 42°30' E 029°18'0 0.0 170 / 101012.9 18.2 17.2
2019-Nov-08 01:00N 42°30' E 029°18'0 0.0 180 / 121012.9 18.5 17.2
2019-Nov-08 00:00N 42°30' E 029°18'0 0.0 160 / 121013.0 18.4 17.2
2019-Nov-07 23:00N 42°30' E 029°18'0 0.0 180 / 111013.0 18.9 17.2
2019-Nov-07 22:00N 42°30' E 029°18'0 0.0 190 / 191012.5 19.4 17.3
2019-Nov-07 21:00N 42°30' E 029°18'0 0.0 190 / 171012.8 19.0 17.2
2019-Nov-07 20:00N 42°30' E 029°18'0 0.0 190 / 141012.9 19.4 17.2
2019-Nov-07 19:00N 42°30' E 029°18'0 0.0 180 / 111012.8 19.2 17.2
2019-Nov-07 18:00N 42°30' E 029°18'0 0.0 180 / 141012.5 19.2 17.2
2019-Nov-07 17:00N 42°30' E 029°18'   190 / 181012.0 19.9 17.2
Track history (hours):
 
Tides and Currents Weather Stations Pressure Air Temp Water Temp Dewpoint Dewpoint Depression Visibility Wind Speed Wind Dir Waves Ship Positions

Oceanographic research ship Poseidon (Germany)

Detailed information on ship capabilities available from University of Delaware's Ocean Information Center.

Last reported at 2019-Nov-17 17:00 UTC. Time now 2019-Nov-17 17:37 UTC.
Position N 43°36' E 030°36'.

Length 60 m; beam 11.4 m; draft 4.1 m.

Type: Ship. MMSI: 211204360.

Wind from 090 at 17 knots

Barometer 1022.6 mb
Air temperature 14.2 ° C
Water temperature 16.9 ° C

Date/timePositionNaut miles runAvg speedWind from/ knotsBaromVisibWave heightAir tempDewpointWater temp
2019-Nov-17 17:00N 43°36' E 030°36'0 0.0 090 / 171022.6 14.2 16.9
2019-Nov-17 16:00N 43°36' E 030°36'0 0.0 100 / 171022.9 14.4 16.9
2019-Nov-17 15:00N 43°36' E 030°36'0 0.0 090 / 171022.8 13.9 16.9
2019-Nov-17 14:00N 43°36' E 030°36'0 0.0 110 / 171022.8 14.2 16.9
2019-Nov-17 13:00N 43°36' E 030°36'0 0.0 100 / 151022.8 14.4 16.9
2019-Nov-17 12:00N 43°36' E 030°36'0 0.0 090 / 141023.0 14.2 16.9
2019-Nov-17 11:00N 43°36' E 030°36'0 0.0 100 / 161023.2 14.0 16.8
2019-Nov-17 10:00N 43°36' E 030°36'0 0.0 100 / 171023.6 13.9 16.9
2019-Nov-17 09:00N 43°36' E 030°36'0 0.0 100 / 191023.9 14.0 16.9
2019-Nov-17 08:00N 43°36' E 030°36'0 0.0 100 / 191024.3 14.2 16.9
2019-Nov-17 07:00N 43°36' E 030°36'0 0.0 090 / 171024.3 14.5 16.9
2019-Nov-17 06:00N 43°36' E 030°36'0 0.0 090 / 181024.3 15.0 16.8
2019-Nov-17 05:00N 43°36' E 030°36'0 0.0 070 / 201024.0 14.9 16.8
2019-Nov-17 04:00N 43°36' E 030°36'0 0.0 070 / 181023.8 14.7 16.8
2019-Nov-17 03:00N 43°36' E 030°36'0 0.0 070 / 181023.5 14.7 16.8
2019-Nov-17 02:00N 43°36' E 030°36'0 0.0 080 / 171023.5 14.7 16.8
2019-Nov-17 01:00N 43°36' E 030°36'0 0.0 090 / 151023.6 15.0 16.8
2019-Nov-17 00:00N 43°36' E 030°36'0 0.0 100 / 151023.6 15.2 16.8
2019-Nov-16 23:00N 43°36' E 030°36'0 0.0 090 / 151023.6 15.0 16.8
2019-Nov-16 22:00N 43°36' E 030°36'0 0.0 090 / 161023.9 15.2 16.9
2019-Nov-16 21:00N 43°36' E 030°36'0 0.0 090 / 151024.1 15.2 16.9
2019-Nov-16 20:00N 43°36' E 030°36'0 0.0 090 / 111024.3 15.2 16.9
2019-Nov-16 19:00N 43°36' E 030°36'0 0.0 100 / 161024.3 14.9 16.9
2019-Nov-16 18:00N 43°36' E 030°36'0 0.0 090 / 151024.4 15.0 16.8
2019-Nov-16 17:00N 43°36' E 030°36'0 0.0 090 / 141024.5 15.2 16.9
2019-Nov-16 16:00N 43°36' E 030°36'0 0.0 090 / 111024.4 15.2 16.9
2019-Nov-16 15:00N 43°36' E 030°36'0 0.0 090 / 121024.1 15.2 16.9
2019-Nov-16 14:00N 43°36' E 030°36'7 7.4 090 / 101023.8 15.5 16.9
2019-Nov-16 13:00N 43°42' E 030°42'1212.0 110 / 81023.9 15.4 16.7
2019-Nov-16 12:00N 43°54' E 030°42'7 7.4 110 / 51024.4 14.9 16.7
2019-Nov-16 11:00N 44°00' E 030°48'7 7.4 120 / 41024.6 15.4 16.2
2019-Nov-16 10:00N 44°06' E 030°54'7 7.4 110 / 71024.9 15.9 15.9
2019-Nov-16 09:00N 44°12' E 031°00'0 0.0 120 / 71025.3 15.4 16.2
2019-Nov-16 08:00N 44°12' E 031°00'0 0.0 080 / 51025.2 14.9 16.2
2019-Nov-16 07:00N 44°12' E 031°00'0 0.0 110 / 31025.0 14.4 16.2
2019-Nov-16 06:00N 44°12' E 031°00'0 0.0 090 / 71024.7 14.5 16.2
2019-Nov-16 05:00N 44°12' E 031°00'0 0.0 100 / 51024.2 15.4 16.2
2019-Nov-16 04:00N 44°12' E 031°00'4 4.3 320 / 11023.8 15.2 16.2
2019-Nov-16 03:00N 44°12' E 031°06'6 6.0 220 / 31023.5 15.4 16.1
2019-Nov-16 02:00N 44°18' E 031°06'6 6.0 240 / 61023.5 15.4 16.1
2019-Nov-16 01:00N 44°12' E 031°06'0 0.0 220 / 51023.4 15.7 16.1
2019-Nov-16 00:00N 44°12' E 031°06'4 4.3 200 / 71023.2 15.7 16.1
2019-Nov-15 23:00N 44°12' E 031°00'0 0.0 190 / 61022.6 15.9 16.1
2019-Nov-15 22:00N 44°12' E 031°00'0 0.0 190 / 71022.3 15.9 16.1
2019-Nov-15 21:00N 44°12' E 031°00'0 0.0 180 / 81022.1 16.0 16.1
2019-Nov-15 20:00N 44°12' E 031°00'0 0.0 180 / 81022.0 16.2 16.1
2019-Nov-15 19:00N 44°12' E 031°00'0 0.0 180 / 101021.7 16.2 16.1
2019-Nov-15 18:00N 44°12' E 031°00'0 0.0 180 / 91021.5 16.4 16.1
2019-Nov-15 17:00N 44°12' E 031°00'0 0.0 180 / 91021.2 16.2 16.0
2019-Nov-15 16:00N 44°12' E 031°00'0 0.0 180 / 91020.9 16.2 16.0
2019-Nov-15 15:00N 44°12' E 031°00'0 0.0 170 / 81020.3 16.4 16.1
2019-Nov-15 14:00N 44°12' E 031°00'6 6.0 170 / 71020.0 16.7 16.5
2019-Nov-15 13:00N 44°06' E 031°00'7 7.4 150 / 91019.4 16.9 16.3
2019-Nov-15 12:00N 44°00' E 030°54'7 7.4 190 / 71019.1 17.2 16.1
2019-Nov-15 11:00N 43°54' E 030°48'4 4.3 200 / 121018.8 17.0 16.5
2019-Nov-15 10:00N 43°54' E 030°42'7 7.4 180 / 121018.8 16.7 16.7
2019-Nov-15 09:00N 43°48' E 030°36'4 4.3 180 / 111018.7 17.2 16.9
2019-Nov-15 08:00N 43°48' E 030°30'0 0.0 190 / 101018.2 17.2 16.9
2019-Nov-15 07:00N 43°48' E 030°30'0 0.0 180 / 81017.7 16.9 16.9
2019-Nov-15 06:00N 43°48' E 030°30'0 0.0 190 / 81017.3 16.9 16.9
2019-Nov-15 05:00N 43°48' E 030°30'0 0.0 190 / 61016.4 16.7 16.9
2019-Nov-15 04:00N 43°48' E 030°30'0 0.0 190 / 81015.9 16.7 16.9
2019-Nov-15 03:00N 43°48' E 030°30'0 0.0 150 / 81015.3 16.7 16.9
2019-Nov-15 02:00N 43°48' E 030°30'0 0.0 140 / 81015.0 16.7 17.0
2019-Nov-15 01:00N 43°48' E 030°30'0 0.0 110 / 81014.7 16.7 17.0
2019-Nov-15 00:00N 43°48' E 030°30'0 0.0 160 / 51014.7 16.5 17.0
2019-Nov-14 23:00N 43°48' E 030°30'0 0.0 140 / 51014.2 16.5 16.9
2019-Nov-14 22:00N 43°48' E 030°30'0 0.0 130 / 101013.9 16.4 17.0
2019-Nov-14 21:00N 43°48' E 030°30'0 0.0 130 / 111013.6 16.4 17.0
2019-Nov-14 20:00N 43°48' E 030°30'0 0.0 130 / 141013.5 16.4 16.9
2019-Nov-14 19:00N 43°48' E 030°30'0 0.0 120 / 151013.2 16.4 16.9
2019-Nov-14 18:00N 43°48' E 030°30'0 0.0 110 / 161012.6 16.2 17.0
2019-Nov-14 17:00N 43°48' E 030°30'0 0.0 120 / 161012.8 16.2 17.1
2019-Nov-14 16:00N 43°48' E 030°30'0 0.0 120 / 181012.9 16.0 17.1
2019-Nov-14 15:00N 43°48' E 030°30'0 0.0 120 / 201012.3 16.0 17.1
2019-Nov-14 14:00N 43°48' E 030°30'0 0.0 110 / 191012.1 16.0 17.1
2019-Nov-14 13:00N 43°48' E 030°30'0 0.0 110 / 191012.2 15.9 17.1
2019-Nov-14 12:00N 43°48' E 030°30'0 0.0 110 / 241011.9 15.9 17.1
2019-Nov-14 11:00N 43°48' E 030°30'0 0.0 110 / 221012.2 16.0 17.1
2019-Nov-14 10:00N 43°48' E 030°30'6 6.0 110 / 231012.6 16.0 17.1
2019-Nov-14 09:00N 43°42' E 030°30'6 6.0 100 / 231012.6 16.0 17.1
2019-Nov-14 08:00N 43°48' E 030°30'0 0.0 100 / 201013.0 16.0 17.0
2019-Nov-14 07:00N 43°48' E 030°30'7 7.4 110 / 211012.6 16.2 16.9
2019-Nov-14 06:00N 43°42' E 030°36'1212.0 090 / 191012.8 16.0 17.0
2019-Nov-14 05:00N 43°30' E 030°36'4 4.4 090 / 191012.5 16.2 16.9
2019-Nov-14 04:00N 43°30' E 030°42'0 0.0 100 / 201012.2 16.0 17.0
2019-Nov-14 03:00N 43°30' E 030°42'0 0.0 110 / 191012.7 15.9 17.0
2019-Nov-14 02:00N 43°30' E 030°42'0 0.0 120 / 181013.2 15.7 17.0
2019-Nov-14 01:00N 43°30' E 030°42'0 0.0 110 / 221013.0 15.4 17.0
2019-Nov-14 00:00N 43°30' E 030°42'0 0.0 110 / 221013.2 15.4 17.0
2019-Nov-13 23:00N 43°30' E 030°42'0 0.0 100 / 251012.8 15.4 17.0
2019-Nov-13 22:00N 43°30' E 030°42'0 0.0 110 / 251013.5 15.5 17.0
2019-Nov-13 21:00N 43°30' E 030°42'0 0.0 110 / 241014.2 15.7 17.0
2019-Nov-13 20:00N 43°30' E 030°42'0 0.0 110 / 261014.4 16.2 17.0
2019-Nov-13 19:00N 43°30' E 030°42'0 0.0 120 / 231014.8 16.2 17.0
2019-Nov-13 18:00N 43°30' E 030°42'0 0.0 110 / 241014.8 16.4 17.1
2019-Nov-13 17:00N 43°30' E 030°42'2 2.2 110 / 231014.9 16.4 17.1
2019-Nov-13 16:00N 43°30' E 030°39'2141.3
2019-Nov-13 16:00N 43°30' E 030°42'0 0.0 110 / 241014.9 16.4 17.1
2019-Nov-13 15:00N 43°30' E 030°42'0 0.0 120 / 201014.9 16.7 17.1
2019-Nov-13 14:00N 43°30' E 030°42'0 0.0 120 / 181014.9 16.7 17.1
2019-Nov-13 13:00N 43°30' E 030°42'0 0.0 120 / 181015.0 16.9 17.2
2019-Nov-13 12:00N 43°30' E 030°42'0 0.0 130 / 171015.5 17.2 17.2
2019-Nov-13 11:00N 43°30' E 030°42'0 0.0 130 / 181015.5 17.2 17.2
2019-Nov-13 10:00N 43°30' E 030°42'0 0.0 130 / 211015.4 17.0 17.2
2019-Nov-13 09:00N 43°30' E 030°42'2 2.6 130 / 221015.9 17.2 17.2
2019-Nov-13 08:08N 43°30' E 030°39'215.3
2019-Nov-13 08:00N 43°30' E 030°42'0 0.0 120 / 231016.1 17.0 17.2
2019-Nov-13 07:00N 43°30' E 030°42'0 0.0 120 / 231016.2 16.9 17.2
2019-Nov-13 06:00N 43°30' E 030°42'0 0.0 120 / 231016.3 16.7 17.1
2019-Nov-13 05:00N 43°30' E 030°42'0 0.0 120 / 231016.2 16.5 17.1
2019-Nov-13 04:00N 43°30' E 030°42'0 0.0 120 / 241016.0 16.4 17.1
2019-Nov-13 03:00N 43°30' E 030°42'0 0.0 110 / 241016.3 16.2 17.1
2019-Nov-13 02:00N 43°30' E 030°42'0 0.0 110 / 241016.6 16.2 17.1
2019-Nov-13 01:00N 43°30' E 030°42'0 0.0 110 / 271017.2 16.0 17.1
2019-Nov-13 00:00N 43°30' E 030°42'0 0.0 110 / 251017.4 16.2 17.0
2019-Nov-12 23:00N 43°30' E 030°42'0 0.0 100 / 251017.8 16.2 17.0
2019-Nov-12 22:00N 43°30' E 030°42'0 0.0 100 / 231018.2 16.4 17.0
2019-Nov-12 21:00N 43°30' E 030°42'0 0.0 110 / 221018.4 16.2 17.0
2019-Nov-12 20:00N 43°30' E 030°42'0 0.0 110 / 191018.8 16.2 17.0
2019-Nov-12 19:00N 43°30' E 030°42'7 7.4 100 / 171019.1 16.2 17.0
2019-Nov-12 18:00N 43°24' E 030°48'4 4.4 100 / 161019.1 16.0 16.5
2019-Nov-12 17:00N 43°24' E 030°54'6 6.0 100 / 181018.8 16.2 16.4
2019-Nov-12 16:00N 43°18' E 030°54'0 0.0 100 / 181018.7 16.0 16.4
2019-Nov-12 15:00N 43°18' E 030°54'0 0.0 110 / 151019.0 16.2 16.4
2019-Nov-12 14:00N 43°18' E 030°54'0 0.0 100 / 211018.6 15.9 16.4
2019-Nov-12 13:00N 43°18' E 030°54'215.4 090 / 201019.0 16.0 16.4
2019-Nov-12 12:51N 43°20' E 030°55'0 0.0
2019-Nov-12 12:00N 43°20' E 030°55'2332.4
2019-Nov-12 12:00N 43°18' E 030°54'2 3.7 090 / 191019.6 16.0 16.4
2019-Nov-12 11:25N 43°20' E 030°55'2 4.9
2019-Nov-12 11:00N 43°18' E 030°54'0 0.0 080 / 211019.5 16.2 16.5
2019-Nov-12 10:00N 43°18' E 030°54'0 0.0 080 / 201020.2 16.0 16.5
2019-Nov-12 09:00N 43°18' E 030°54'0 0.0 090 / 191020.6 16.4 16.4
2019-Nov-12 08:00N 43°18' E 030°54'0 0.0 090 / 171021.1 16.2 16.5
2019-Nov-12 07:00N 43°18' E 030°54'0 0.0 090 / 181021.1 15.9 16.5
2019-Nov-12 06:00N 43°18' E 030°54'0 0.0 080 / 181021.2 15.2 16.5
2019-Nov-12 05:00N 43°18' E 030°54'0 0.0 070 / 161020.7 16.4 16.5
2019-Nov-12 04:00N 43°18' E 030°54'0 0.0 060 / 141020.5 16.4 16.5
2019-Nov-12 03:00N 43°18' E 030°54'0 0.0 050 / 111020.4 16.2 16.6
2019-Nov-12 02:00N 43°18' E 030°54'0 0.0 050 / 111020.3 16.4 16.6
2019-Nov-12 01:00N 43°18' E 030°54'0 0.0 070 / 121020.2 16.4 16.6
2019-Nov-12 00:00N 43°18' E 030°54'0 0.0 090 / 111020.1 16.4 16.5
2019-Nov-11 23:00N 43°18' E 030°54'0 0.0 060 / 91020.3 16.4 16.6
2019-Nov-11 22:00N 43°18' E 030°54'0 0.0 100 / 71020.3 16.4 16.6
2019-Nov-11 21:00N 43°18' E 030°54'0 0.0 100 / 151020.1 16.7 16.6
2019-Nov-11 20:00N 43°18' E 030°54'0 0.0 030 / 91019.9 16.2 16.6
2019-Nov-11 19:00N 43°18' E 030°54'0 0.0 150 / 61021.2 16.2 16.6
2019-Nov-11 18:00N 43°18' E 030°54'0 0.0 110 / 71020.8 16.2 16.6
2019-Nov-11 17:00N 43°18' E 030°54'0 0.0 080 / 71020.4 16.2 16.6
2019-Nov-11 16:00N 43°18' E 030°54'0 0.0 060 / 71019.9 16.2 16.7
2019-Nov-11 15:00N 43°18' E 030°54'7 7.4 030 / 61019.8 16.4 16.7
2019-Nov-11 14:00N 43°24' E 031°00'1312.8 340 / 71019.3 16.5 16.6
2019-Nov-11 13:00N 43°36' E 031°06'7 7.4 320 / 131019.3 16.7 16.5
2019-Nov-11 12:00N 43°42' E 031°12'0 0.0 310 / 111019.0 17.0 16.3
2019-Nov-11 11:00N 43°42' E 031°12'0 0.0 310 / 111019.1 17.2 16.3
2019-Nov-11 10:00N 43°42' E 031°12'0 0.0 280 / 101019.1 17.2 16.3
2019-Nov-11 09:00N 43°42' E 031°12'0 0.0 260 / 101019.4 17.2 16.2
2019-Nov-11 08:00N 43°42' E 031°12'0 0.0 240 / 101019.3 17.4 16.2
2019-Nov-11 07:00N 43°42' E 031°12'0 0.0 230 / 101018.9 17.4 16.2
2019-Nov-11 06:00N 43°42' E 031°12'0 0.0 230 / 111018.5 17.7 16.2
2019-Nov-11 05:00N 43°42' E 031°12'0 0.0 210 / 141017.9 17.5 16.1
2019-Nov-11 04:00N 43°42' E 031°12'0 0.0 200 / 131017.7 17.4 16.2
2019-Nov-11 03:00N 43°42' E 031°12'0 0.0 210 / 161017.6 18.0 16.2
2019-Nov-11 02:00N 43°42' E 031°12'0 0.0 200 / 131017.4 16.7 16.2
2019-Nov-11 01:00N 43°42' E 031°12'0 0.0 190 / 101017.2 16.4 16.2
2019-Nov-11 00:00N 43°42' E 031°12'0 0.0 180 / 111016.9 15.9 16.2
2019-Nov-10 23:00N 43°42' E 031°12'0 0.0 180 / 101016.9 15.2 16.2
2019-Nov-10 22:00N 43°42' E 031°12'0 0.0 170 / 91016.8 14.7 16.2
2019-Nov-10 21:00N 43°42' E 031°12'0 0.0 180 / 91016.7 15.5 16.2
2019-Nov-10 20:00N 43°42' E 031°12'0 0.0 160 / 111016.7 15.7 16.2
2019-Nov-10 19:00N 43°42' E 031°12'0 0.0 140 / 101016.4 16.2 16.3
2019-Nov-10 18:00N 43°42' E 031°12'0 0.0 160 / 91016.3 16.2 16.2
2019-Nov-10 17:00N 43°42' E 031°12'0 0.0 140 / 131015.8 16.2 16.3
2019-Nov-10 16:00N 43°42' E 031°12'0 0.0 140 / 141015.8 16.4 16.3
2019-Nov-10 15:00N 43°42' E 031°12'0 0.0 150 / 141015.7 16.4 16.3
2019-Nov-10 14:00N 43°42' E 031°12'0 0.0 150 / 141015.5 16.5 16.3
2019-Nov-10 13:00N 43°42' E 031°12'0 0.0 140 / 151015.1 16.7 16.3
2019-Nov-10 12:00N 43°42' E 031°12'0 0.0 140 / 141015.3 16.7 16.3
2019-Nov-10 11:00N 43°42' E 031°12'0 0.0 140 / 141015.7 16.7 16.3
2019-Nov-10 10:00N 43°42' E 031°12'0 0.0 140 / 161016.1 16.7 16.3
2019-Nov-10 09:00N 43°42' E 031°12'0 0.0 140 / 171016.6 16.4 16.3
2019-Nov-10 08:00N 43°42' E 031°12'0 0.0 130 / 181016.7 16.4 16.3
2019-Nov-10 07:00N 43°42' E 031°12'0 0.0 140 / 161017.0 16.4 16.2
2019-Nov-10 06:00N 43°42' E 031°12'0 0.0 120 / 191016.7 16.0 16.2
2019-Nov-10 05:00N 43°42' E 031°12'0 0.0 120 / 181016.8 15.2 16.1
2019-Nov-10 04:00N 43°42' E 031°12'6 6.0 120 / 211016.7 14.9 16.1
2019-Nov-10 03:00N 43°36' E 031°12'4 4.3 120 / 211016.7 15.4 16.3
2019-Nov-10 02:00N 43°36' E 031°06'0 0.0 120 / 211016.7 14.7 16.1
2019-Nov-10 01:00N 43°36' E 031°06'0 0.0 120 / 171016.9 14.7 16.1
2019-Nov-10 00:00N 43°36' E 031°06'7 7.4 130 / 151017.4 14.4 16.2
2019-Nov-09 23:00N 43°30' E 031°00'0 0.0 130 / 151017.6 14.2 16.5
2019-Nov-09 22:00N 43°30' E 031°00'7 7.4 150 / 141017.9 14.5 16.6
2019-Nov-09 21:00N 43°24' E 030°54'0 0.0 140 / 151018.3 14.4 17.0
2019-Nov-09 20:00N 43°24' E 030°54'0 0.0 140 / 171018.7 14.7 16.9
2019-Nov-09 19:00N 43°24' E 030°54'7 7.4 130 / 181018.5 15.2 16.9
2019-Nov-09 18:00N 43°18' E 030°48'0 0.0 130 / 141018.2 16.4 17.1
2019-Nov-09 17:00N 43°18' E 030°48'6 6.0 140 / 111018.1 17.5 17.1
2019-Nov-09 16:00N 43°12' E 030°48'4 4.4 140 / 111018.3 17.5 17.2
2019-Nov-09 15:00N 43°12' E 030°42'0 0.0 140 / 91018.0 17.9 17.4
2019-Nov-09 14:00N 43°12' E 030°42'4 4.4 150 / 101018.0 18.2 17.3
2019-Nov-09 13:00N 43°12' E 030°36'6 6.0 150 / 101018.1 18.4 17.4
2019-Nov-09 12:00N 43°06' E 030°36'0 0.0 170 / 91018.1 18.9 17.4
2019-Nov-09 11:00N 43°06' E 030°36'0 0.0 160 / 81018.1 18.4 17.1
2019-Nov-09 10:00N 43°06' E 030°36'0 0.0 190 / 71018.3 18.7 17.2
2019-Nov-09 09:00N 43°06' E 030°36'0 0.0 210 / 91018.6 19.2 17.1
2019-Nov-09 08:00N 43°06' E 030°36'0 0.0 210 / 121018.6 18.9 17.0
2019-Nov-09 07:00N 43°06' E 030°36'0 0.0 200 / 121018.4 18.7 16.9
2019-Nov-09 06:00N 43°06' E 030°36'0 0.0 190 / 101018.2 18.9 16.8
2019-Nov-09 05:00N 43°06' E 030°36'0 0.0 180 / 111017.7 17.9 16.8
2019-Nov-09 04:00N 43°06' E 030°36'0 0.0 180 / 91017.2 17.7 16.9
2019-Nov-09 03:00N 43°06' E 030°36'0 0.0 180 / 71016.9 17.7 16.8
2019-Nov-09 02:00N 43°06' E 030°36'236.6 190 / 71016.6 17.7 16.8
2019-Nov-09 01:56N 43°08' E 030°35'2 2.3
2019-Nov-09 01:00N 43°06' E 030°36'2 4.3 190 / 91016.5 17.4 17.0
2019-Nov-09 00:30N 43°08' E 030°35'2 4.1
2019-Nov-09 00:00N 43°06' E 030°36'0 0.0 180 / 91016.5 17.4 17.1
2019-Nov-08 23:00N 43°06' E 030°36'0 0.0 180 / 121016.5 17.4 17.1
2019-Nov-08 22:00N 43°06' E 030°36'0 0.0 160 / 111016.5 17.7 17.1
2019-Nov-08 21:00N 43°06' E 030°36'0 0.0 140 / 101016.3 17.9 17.2
2019-Nov-08 20:00N 43°06' E 030°36'0 0.0 140 / 71016.2 17.7 17.2
2019-Nov-08 19:00N 43°06' E 030°36'0 0.0 140 / 121016.1 18.0 17.2
2019-Nov-08 18:00N 43°06' E 030°36'0 0.0 140 / 151016.0 18.0 17.2
2019-Nov-08 17:00N 43°06' E 030°36'0 0.0 150 / 121015.9 18.7 17.3
2019-Nov-08 16:00N 43°06' E 030°36'0 0.0 150 / 121015.5 17.9 17.3
2019-Nov-08 15:00N 43°06' E 030°36'0 0.0 150 / 101015.4 18.2 17.3
2019-Nov-08 14:00N 43°06' E 030°36'0 0.0 150 / 111015.0 18.0 17.3
2019-Nov-08 13:00N 43°06' E 030°36'4 4.4 170 / 101015.0 18.9 17.3
2019-Nov-08 12:00N 43°06' E 030°30'1110.6 190 / 91014.8 19.4 17.2
2019-Nov-08 11:00N 43°00' E 030°18'18 8.9 180 / 121014.6 19.4 17.7
2019-Nov-08 09:00N 42°48' E 030°00'1110.7 180 / 121014.8 19.2 17.3
2019-Nov-08 08:00N 42°42' E 029°48'4 4.4 180 / 111014.8 18.9 17.1
2019-Nov-08 07:00N 42°42' E 029°42'1110.7 170 / 131014.6 18.2 17.4
2019-Nov-08 06:00N 42°36' E 029°30'1110.7 170 / 121014.3 18.4 16.9
2019-Nov-08 05:00N 42°30' E 029°18'0 0.0 180 / 131013.6 18.2 17.2
2019-Nov-08 04:00N 42°30' E 029°18'0 0.0 180 / 121013.0 18.4 17.2
2019-Nov-08 03:00N 42°30' E 029°18'0 0.0 170 / 111013.0 18.2 17.2
2019-Nov-08 02:00N 42°30' E 029°18'0 0.0 170 / 101012.9 18.2 17.2
2019-Nov-08 01:00N 42°30' E 029°18'0 0.0 180 / 121012.9 18.5 17.2
2019-Nov-08 00:00N 42°30' E 029°18'0 0.0 160 / 121013.0 18.4 17.2
2019-Nov-07 23:00N 42°30' E 029°18'0 0.0 180 / 111013.0 18.9 17.2
2019-Nov-07 22:00N 42°30' E 029°18'0 0.0 190 / 191012.5 19.4 17.3
2019-Nov-07 21:00N 42°30' E 029°18'0 0.0 190 / 171012.8 19.0 17.2
2019-Nov-07 20:00N 42°30' E 029°18'0 0.0 190 / 141012.9 19.4 17.2
2019-Nov-07 19:00N 42°30' E 029°18'0 0.0 180 / 111012.8 19.2 17.2
2019-Nov-07 18:00N 42°30' E 029°18'0 0.0 180 / 141012.5 19.2 17.2
2019-Nov-07 17:00N 42°30' E 029°18'   190 / 181012.0 19.9 17.2

Dump ship's entire track history